Maldives Meteorological Service

SYNOP

Station Code SYNOP
43555
AAXX 17124 43555 12468 83410 10305 20243 30083 40085 60002 81237 333 10314 59004 81818 88276=
43533
AAXX 17124 43533 12462 73208 10302 20251 30078 40080 60002 82242 333 10319 59011 82818 85076=
43577
AAXX 17154 43577 42462 79902 10284 20250 30100 40102 82238 333 59003 82818 87276=
43588
AAXX 17124 43588 12462 70503 10302 20255 30084 40085 60002 82208 333 10323 59005 82818 87275=
43599
AAXX 17124 43599 12460 70905 10300 20249 30084 40086 60002 82208 333 10320 59009 82818 87275=
Last Updated : 2019-08-17 17:00:06